Acme, Wyoming
Current Conditions -  °F | °C
As of 12:53 AM on Saturday 20 Dec 2014 (Local Time) from KSHR Reporting Station
Overcast Overcast  
Wind Chill: 28°   Ceiling: 7500
Heat Index: 28°   Visibility: 10mi
Dew Point: 23°   Wind: 0mph
Humidity: 81%   Direction: NA
Pressure: 29.9"   Gusts: NA
Location:  44.8885°N, 107.104°W
Report Text: KSHR 200753Z AUTO 00000KT 10SM BKN075 OVC090 M02/M05 A2990 RMK AO2 SLP148 T10221050
Loading
Personal Weather Stations






























Interactive Weather Map New forecast layout! Learn more

10-Day Weather Forecast

Advertisements
Track Severe Weather on mobile